Time;durP1;ratioP1;P1;durP2;ratioP2;P2;SDS_P1;SDS_P2;PMS_P1;PMS_P2;Temp;Humidity;BMP_temperature;BMP_pressure;BME280_temperature;BME280_humidity;BME280_pressure;Samples;Min_cycle;Max_cycle;Signal;HPM_P1;HPM_P2
2022/03/08 00:01:29;;;;;;;21.83;15.70;;;;;;;;;;4990104;28;20199;-77
2022/03/08 00:03:56;;;;;;;20.03;15.50;;;;;;;;;;4996656;28;20231;-77
2022/03/08 00:06:26;;;;;;;21.93;15.40;;;;;;;;;;4996070;28;20298;-77
2022/03/08 00:08:56;;;;;;;21.47;15.80;;;;;;;;;;4989533;28;20231;-77
2022/03/08 00:11:24;;;;;;;21.37;14.63;;;;;;;;;;4990249;28;20226;-77
2022/03/08 00:13:51;;;;;;;20.20;15.73;;;;;;;;;;4996507;28;20261;-78
2022/03/08 00:16:19;;;;;;;19.77;15.27;;;;;;;;;;4995930;28;20261;-77
2022/03/08 00:18:48;;;;;;;18.53;15.60;;;;;;;;;;4995230;28;20203;-77
2022/03/08 00:21:19;;;;;;;21.23;15.97;;;;;;;;;;4995623;28;20199;-77
2022/03/08 00:23:48;;;;;;;23.40;16.70;;;;;;;;;;4995894;28;20211;-77
2022/03/08 00:26:15;;;;;;;20.67;15.63;;;;;;;;;;4995079;28;20227;-78
2022/03/08 00:28:43;;;;;;;18.10;14.00;;;;;;;;;;4995436;28;20241;-77
2022/03/08 00:31:19;;;;;;;20.47;15.33;;;;;;;;;;4995463;28;20234;-77
2022/03/08 00:33:46;;;;;;;20.63;15.00;;;;;;;;;;4995269;28;20297;-77
2022/03/08 00:36:14;;;;;;;18.43;14.40;;;;;;;;;;4994961;28;20299;-77
2022/03/08 00:38:42;;;;;;;20.90;15.03;;;;;;;;;;4995248;28;20277;-77
2022/03/08 00:41:10;;;;;;;19.47;15.30;;;;;;;;;;4995762;28;20210;-78
2022/03/08 00:43:38;;;;;;;19.13;14.37;;;;;;;;;;4992802;28;20200;-78
2022/03/08 00:46:05;;;;;;;19.63;14.50;;;;;;;;;;4993019;28;20313;-77
2022/03/08 00:48:32;;;;;;;19.00;14.73;;;;;;;;;;4992363;28;20219;-77
2022/03/08 00:51:00;;;;;;;20.87;15.23;;;;;;;;;;4993966;28;20207;-77
2022/03/08 00:53:27;;;;;;;20.80;15.20;;;;;;;;;;4994806;28;20207;-77
2022/03/08 00:55:54;;;;;;;19.77;14.33;;;;;;;;;;4995199;28;20310;-77
2022/03/08 00:58:23;;;;;;;19.53;14.83;;;;;;;;;;4994387;28;20209;-77
2022/03/08 01:00:53;;;;;;;20.07;14.47;;;;;;;;;;4995069;28;20249;-77
2022/03/08 01:03:20;;;;;;;19.80;14.40;;;;;;;;;;4994732;28;20215;-78
2022/03/08 01:05:48;;;;;;;21.80;15.43;;;;;;;;;;4994984;28;20314;-78
2022/03/08 01:08:15;;;;;;;22.57;15.47;;;;;;;;;;4994235;28;20318;-77
2022/03/08 01:10:42;;;;;;;20.33;15.27;;;;;;;;;;4995387;28;20235;-77
2022/03/08 01:13:10;;;;;;;21.67;15.23;;;;;;;;;;4995364;28;20293;-77
2022/03/08 01:15:38;;;;;;;19.47;14.53;;;;;;;;;;4994755;28;20227;-77
2022/03/08 01:18:05;;;;;;;24.80;16.40;;;;;;;;;;4994379;28;20267;-78
2022/03/08 01:20:33;;;;;;;20.40;14.67;;;;;;;;;;4996285;28;20242;-77
2022/03/08 01:23:00;;;;;;;24.00;16.07;;;;;;;;;;4997991;28;20219;-77
2022/03/08 01:25:27;;;;;;;20.23;15.17;;;;;;;;;;4994938;28;20294;-77
2022/03/08 01:27:55;;;;;;;21.60;15.27;;;;;;;;;;4994672;28;20685;-77
2022/03/08 01:30:23;;;;;;;20.63;15.57;;;;;;;;;;4994760;28;20296;-77
2022/03/08 01:32:52;;;;;;;20.17;14.97;;;;;;;;;;4992991;28;20286;-78
2022/03/08 01:35:19;;;;;;;23.27;15.87;;;;;;;;;;4994906;28;20200;-77
2022/03/08 01:37:47;;;;;;;22.63;15.93;;;;;;;;;;4993883;28;20287;-77
2022/03/08 01:40:15;;;;;;;23.13;15.80;;;;;;;;;;4994496;28;20286;-77
2022/03/08 01:42:46;;;;;;;20.07;15.70;;;;;;;;;;4994692;28;20211;-77
2022/03/08 01:45:13;;;;;;;21.73;15.10;;;;;;;;;;4994476;28;20210;-77
2022/03/08 01:47:41;;;;;;;23.87;15.77;;;;;;;;;;4979617;28;20306;-77
2022/03/08 01:50:10;;;;;;;21.33;15.43;;;;;;;;;;4994630;28;20249;-77
2022/03/08 01:52:39;;;;;;;21.83;16.23;;;;;;;;;;4994473;28;20212;-77
2022/03/08 01:55:08;;;;;;;19.70;14.90;;;;;;;;;;4994557;28;20211;-77
2022/03/08 01:57:35;;;;;;;21.27;14.87;;;;;;;;;;4990484;28;20306;-77
2022/03/08 02:00:02;;;;;;;21.00;15.50;;;;;;;;;;4991841;28;20286;-77
2022/03/08 02:02:30;;;;;;;20.47;15.13;;;;;;;;;;4994453;28;20214;-77
2022/03/08 02:04:57;;;;;;;20.50;15.07;;;;;;;;;;4994990;28;20204;-77
2022/03/08 02:07:25;;;;;;;23.20;15.90;;;;;;;;;;4992013;28;20333;-77
2022/03/08 02:09:53;;;;;;;20.23;15.37;;;;;;;;;;4994374;28;20214;-78
2022/03/08 02:12:20;;;;;;;22.73;15.07;;;;;;;;;;4994862;28;20203;-77
2022/03/08 02:14:47;;;;;;;23.90;15.63;;;;;;;;;;4994200;28;20214;-77
2022/03/08 02:17:14;;;;;;;23.37;15.73;;;;;;;;;;4993260;28;20261;-78
2022/03/08 02:19:42;;;;;;;20.53;14.53;;;;;;;;;;4994067;28;20207;-78
2022/03/08 02:22:10;;;;;;;21.73;16.10;;;;;;;;;;4993743;28;20249;-77
2022/03/08 02:24:38;;;;;;;24.43;16.33;;;;;;;;;;4993951;28;20246;-77
2022/03/08 02:27:05;;;;;;;24.70;16.67;;;;;;;;;;4993499;28;20306;-77
2022/03/08 02:29:32;;;;;;;26.07;16.37;;;;;;;;;;4994079;28;20229;-77
2022/03/08 02:32:00;;;;;;;22.23;15.63;;;;;;;;;;4993970;28;20696;-78
2022/03/08 02:34:27;;;;;;;23.57;15.60;;;;;;;;;;4993517;28;20294;-77
2022/03/08 02:37:04;;;;;;;20.83;15.60;;;;;;;;;;4993652;28;20310;-77
2022/03/08 02:39:32;;;;;;;25.00;16.10;;;;;;;;;;4994144;28;20229;-78
2022/03/08 02:42:00;;;;;;;22.80;15.53;;;;;;;;;;4993731;28;20286;-77
2022/03/08 02:44:27;;;;;;;23.93;16.70;;;;;;;;;;4990463;28;20238;-78
2022/03/08 02:46:55;;;;;;;24.57;16.23;;;;;;;;;;4992986;28;20316;-77
2022/03/08 02:49:22;;;;;;;24.37;16.50;;;;;;;;;;4993406;28;20234;-77
2022/03/08 02:51:49;;;;;;;23.80;15.97;;;;;;;;;;4994962;28;20242;-77
2022/03/08 02:54:16;;;;;;;25.70;17.07;;;;;;;;;;4995163;28;20211;-77
2022/03/08 02:56:45;;;;;;;24.10;16.27;;;;;;;;;;4992791;28;20229;-78
2022/03/08 02:59:13;;;;;;;23.80;16.30;;;;;;;;;;4993976;28;20290;-77
2022/03/08 03:01:40;;;;;;;26.93;16.37;;;;;;;;;;4994443;28;20269;-77
2022/03/08 03:04:07;;;;;;;25.80;17.43;;;;;;;;;;5000116;28;20211;-78
2022/03/08 03:06:35;;;;;;;25.70;17.30;;;;;;;;;;5000211;28;20226;-76
2022/03/08 03:09:03;;;;;;;25.70;16.90;;;;;;;;;;5000050;28;20281;-77
2022/03/08 03:11:30;;;;;;;26.43;17.03;;;;;;;;;;4999697;28;20207;-77
2022/03/08 03:13:59;;;;;;;22.73;15.20;;;;;;;;;;4996371;28;20302;-77
2022/03/08 03:16:26;;;;;;;22.93;15.97;;;;;;;;;;4998985;28;20266;-77
2022/03/08 03:18:53;;;;;;;22.23;15.87;;;;;;;;;;4999233;28;20207;-77
2022/03/08 03:21:21;;;;;;;22.77;15.63;;;;;;;;;;4999699;28;20237;-77
2022/03/08 03:23:48;;;;;;;24.23;15.57;;;;;;;;;;4998887;28;20237;-77
2022/03/08 03:26:15;;;;;;;26.37;15.87;;;;;;;;;;5000330;28;20254;-77
2022/03/08 03:28:42;;;;;;;24.20;17.00;;;;;;;;;;5001668;28;20254;-77
2022/03/08 03:31:11;;;;;;;22.73;15.07;;;;;;;;;;5007437;28;20279;-77
2022/03/08 03:33:38;;;;;;;22.20;15.53;;;;;;;;;;5007201;28;20234;-77
2022/03/08 03:36:05;;;;;;;22.50;16.23;;;;;;;;;;4995171;28;20246;-78
2022/03/08 03:38:33;;;;;;;22.07;15.73;;;;;;;;;;4994429;28;20210;-77
2022/03/08 03:41:00;;;;;;;23.00;16.07;;;;;;;;;;4994505;28;20242;-77
2022/03/08 03:43:27;;;;;;;23.17;15.73;;;;;;;;;;4993829;28;20303;-77
2022/03/08 03:45:55;;;;;;;22.50;15.33;;;;;;;;;;4993473;28;20286;-77
2022/03/08 03:48:23;;;;;;;24.13;14.50;;;;;;;;;;4992614;28;20276;-77
2022/03/08 03:50:51;;;;;;;22.93;15.00;;;;;;;;;;4993251;28;20215;-77
2022/03/08 03:53:18;;;;;;;23.00;15.07;;;;;;;;;;4993239;28;20215;-77
2022/03/08 03:55:45;;;;;;;20.77;14.67;;;;;;;;;;4993698;28;20786;-76
2022/03/08 03:58:12;;;;;;;21.67;14.57;;;;;;;;;;4992749;28;20203;-77
2022/03/08 04:00:40;;;;;;;21.33;15.30;;;;;;;;;;4987010;28;20286;-77
2022/03/08 04:03:07;;;;;;;21.60;14.30;;;;;;;;;;4986629;28;20203;-77
2022/03/08 04:05:35;;;;;;;19.63;13.40;;;;;;;;;;4992904;28;20207;-77
2022/03/08 04:08:03;;;;;;;20.13;14.07;;;;;;;;;;4995182;28;20289;-77
2022/03/08 04:10:30;;;;;;;22.70;14.80;;;;;;;;;;4996486;28;20209;-77
2022/03/08 04:12:57;;;;;;;19.90;14.33;;;;;;;;;;4996439;28;20221;-77
2022/03/08 04:15:24;;;;;;;19.70;13.83;;;;;;;;;;4996756;28;20705;-77
2022/03/08 04:17:51;;;;;;;23.10;15.20;;;;;;;;;;4996748;28;20211;-79
2022/03/08 04:20:19;;;;;;;24.00;15.83;;;;;;;;;;4997723;28;20311;-80
2022/03/08 04:22:47;;;;;;;23.20;15.27;;;;;;;;;;4996668;28;20207;-80
2022/03/08 04:25:15;;;;;;;25.17;15.47;;;;;;;;;;4996339;28;20273;-80
2022/03/08 04:27:42;;;;;;;24.40;15.07;;;;;;;;;;4995710;28;20258;-80
2022/03/08 04:30:10;;;;;;;25.53;15.73;;;;;;;;;;4996025;28;20237;-80
2022/03/08 04:32:37;;;;;;;23.80;15.87;;;;;;;;;;4991706;28;20216;-80
2022/03/08 04:35:05;;;;;;;24.33;15.27;;;;;;;;;;4995238;28;20213;-80
2022/03/08 04:37:32;;;;;;;29.00;16.33;;;;;;;;;;4995081;28;20227;-80
2022/03/08 04:40:01;;;;;;;21.63;15.70;;;;;;;;;;4995455;28;20199;-79
2022/03/08 04:42:28;;;;;;;24.73;15.73;;;;;;;;;;4995193;28;20243;-80
2022/03/08 04:44:56;;;;;;;25.33;16.57;;;;;;;;;;4994791;28;20207;-79
2022/03/08 04:47:23;;;;;;;24.40;16.53;;;;;;;;;;4993910;28;20755;-79
2022/03/08 04:49:50;;;;;;;23.87;17.13;;;;;;;;;;4994621;28;20254;-80
2022/03/08 04:52:18;;;;;;;29.20;16.80;;;;;;;;;;4994555;28;20235;-79
2022/03/08 04:54:45;;;;;;;25.93;15.57;;;;;;;;;;4994827;28;20215;-79
2022/03/08 04:57:14;;;;;;;25.30;16.33;;;;;;;;;;4994064;28;20310;-79
2022/03/08 04:59:41;;;;;;;26.97;16.10;;;;;;;;;;4994215;28;20749;-79
2022/03/08 05:02:08;;;;;;;25.73;15.70;;;;;;;;;;4994573;28;20294;-79
2022/03/08 05:04:35;;;;;;;23.57;15.80;;;;;;;;;;4994327;28;20218;-79
2022/03/08 05:07:03;;;;;;;24.47;15.17;;;;;;;;;;4993752;28;20227;-79
2022/03/08 05:09:30;;;;;;;27.43;15.83;;;;;;;;;;4995042;28;20219;-79
2022/03/08 05:11:58;;;;;;;22.33;14.90;;;;;;;;;;4994833;28;20223;-79
2022/03/08 05:14:26;;;;;;;25.23;15.70;;;;;;;;;;4994800;28;20214;-80
2022/03/08 05:16:54;;;;;;;23.23;14.97;;;;;;;;;;4994036;28;20251;-79
2022/03/08 05:19:22;;;;;;;23.37;15.60;;;;;;;;;;4993456;28;20203;-79
2022/03/08 05:21:49;;;;;;;22.37;15.10;;;;;;;;;;4994549;28;20273;-79
2022/03/08 05:24:16;;;;;;;29.60;15.27;;;;;;;;;;4994356;28;20289;-79
2022/03/08 05:26:43;;;;;;;24.93;16.00;;;;;;;;;;4993646;28;20262;-79
2022/03/08 05:29:11;;;;;;;23.07;15.13;;;;;;;;;;4994262;28;20227;-78
2022/03/08 05:31:39;;;;;;;27.20;15.93;;;;;;;;;;4995141;28;20217;-78
2022/03/08 05:34:07;;;;;;;24.07;16.37;;;;;;;;;;4994789;28;20215;-79
2022/03/08 05:36:34;;;;;;;26.57;16.30;;;;;;;;;;4993889;28;20302;-79
2022/03/08 05:39:01;;;;;;;29.63;17.03;;;;;;;;;;4992986;28;20200;-81
2022/03/08 05:41:29;;;;;;;27.80;15.90;;;;;;;;;;4994037;28;20257;-79
2022/03/08 05:43:56;;;;;;;29.27;16.07;;;;;;;;;;4993500;28;20290;-84
2022/03/08 05:46:23;;;;;;;22.63;15.53;;;;;;;;;;4992233;28;20290;-79
2022/03/08 05:48:52;;;;;;;27.07;16.63;;;;;;;;;;4996280;28;20219;-77
2022/03/08 05:51:19;;;;;;;24.60;16.67;;;;;;;;;;4992110;28;20200;-78
2022/03/08 05:53:46;;;;;;;29.20;18.13;;;;;;;;;;4993207;28;20246;-77
2022/03/08 05:56:14;;;;;;;25.80;17.67;;;;;;;;;;4990349;28;20270;-77
2022/03/08 05:58:41;;;;;;;27.00;17.13;;;;;;;;;;4990890;28;20212;-77
2022/03/08 06:01:08;;;;;;;26.73;17.33;;;;;;;;;;4988744;28;20206;-78
2022/03/08 06:03:36;;;;;;;32.90;17.10;;;;;;;;;;4985381;28;20242;-76
2022/03/08 06:06:04;;;;;;;32.67;17.47;;;;;;;;;;4981053;28;20244;-77
2022/03/08 06:08:32;;;;;;;28.20;17.40;;;;;;;;;;4988687;28;20214;-77
2022/03/08 06:10:59;;;;;;;27.73;16.63;;;;;;;;;;4984292;28;20278;-77
2022/03/08 06:13:26;;;;;;;30.87;17.73;;;;;;;;;;4985555;28;20204;-77
2022/03/08 06:15:54;;;;;;;28.63;17.33;;;;;;;;;;4983222;28;20219;-77
2022/03/08 06:18:21;;;;;;;32.40;16.80;;;;;;;;;;4985749;28;20264;-77
2022/03/08 06:20:48;;;;;;;32.30;17.60;;;;;;;;;;4991539;28;20270;-77
2022/03/08 06:23:17;;;;;;;29.63;17.60;;;;;;;;;;4993063;28;20286;-77
2022/03/08 06:25:44;;;;;;;28.03;17.23;;;;;;;;;;4993442;28;20246;-76
2022/03/08 06:28:11;;;;;;;31.47;16.43;;;;;;;;;;4992924;28;20246;-77
2022/03/08 06:30:39;;;;;;;31.10;17.37;;;;;;;;;;4993455;28;20231;-79
2022/03/08 06:33:06;;;;;;;29.03;16.87;;;;;;;;;;4994086;28;20195;-76
2022/03/08 06:35:33;;;;;;;26.70;17.17;;;;;;;;;;4993760;28;20290;-79
2022/03/08 06:38:01;;;;;;;28.10;17.07;;;;;;;;;;4992986;28;20298;-79
2022/03/08 06:40:29;;;;;;;29.10;17.07;;;;;;;;;;4993495;28;20211;-77
2022/03/08 06:42:57;;;;;;;26.40;16.50;;;;;;;;;;4993134;28;20201;-77
2022/03/08 06:45:24;;;;;;;28.67;15.80;;;;;;;;;;4993344;28;20230;-77
2022/03/08 06:47:51;;;;;;;26.70;16.73;;;;;;;;;;4990160;28;20210;-77
2022/03/08 06:50:18;;;;;;;32.17;17.87;;;;;;;;;;4992794;28;20255;-77
2022/03/08 06:52:46;;;;;;;36.90;17.40;;;;;;;;;;4989219;28;20632;-76
2022/03/08 06:55:13;;;;;;;25.17;16.47;;;;;;;;;;4992363;28;20203;-77
2022/03/08 06:57:42;;;;;;;30.17;16.53;;;;;;;;;;4990738;28;20227;-77
2022/03/08 07:00:11;;;;;;;23.07;15.87;;;;;;;;;;4992428;28;20218;-77
2022/03/08 07:02:38;;;;;;;24.70;15.77;;;;;;;;;;4992201;28;20231;-77
2022/03/08 07:05:05;;;;;;;25.37;16.40;;;;;;;;;;4991859;28;20230;-78
2022/03/08 07:07:33;;;;;;;24.27;15.60;;;;;;;;;;4991865;28;20243;-77
2022/03/08 07:10:01;;;;;;;29.70;16.67;;;;;;;;;;4992186;28;20223;-78
2022/03/08 07:12:28;;;;;;;22.60;16.07;;;;;;;;;;4990733;28;20217;-78
2022/03/08 07:14:57;;;;;;;29.07;16.77;;;;;;;;;;4992011;28;20255;-78
2022/03/08 07:17:27;;;;;;;21.83;14.63;;;;;;;;;;4989064;28;20254;-79
2022/03/08 07:19:54;;;;;;;22.93;14.93;;;;;;;;;;4991738;28;20262;-78
2022/03/08 07:22:24;;;;;;;19.77;14.07;;;;;;;;;;4992625;28;20210;-81
2022/03/08 07:24:57;;;;;;;20.70;15.13;;;;;;;;;;4992359;28;20203;-78
2022/03/08 07:27:24;;;;;;;21.90;15.13;;;;;;;;;;4992365;28;20724;-78
2022/03/08 07:29:51;;;;;;;21.27;14.53;;;;;;;;;;4992945;28;20219;-78
2022/03/08 07:32:20;;;;;;;21.33;14.07;;;;;;;;;;4992587;28;20211;-78
2022/03/08 07:34:47;;;;;;;18.13;13.97;;;;;;;;;;4991845;28;20214;-77
2022/03/08 07:37:14;;;;;;;22.53;13.73;;;;;;;;;;4991225;28;20251;-78
2022/03/08 07:39:42;;;;;;;19.07;13.23;;;;;;;;;;4992328;28;20294;-79
2022/03/08 07:42:09;;;;;;;21.17;13.97;;;;;;;;;;4996453;28;20290;-80
2022/03/08 07:44:37;;;;;;;17.60;12.07;;;;;;;;;;4997682;28;20211;-78
2022/03/08 07:47:04;;;;;;;15.93;11.80;;;;;;;;;;4995649;28;20223;-78
2022/03/08 07:49:34;;;;;;;14.50;11.40;;;;;;;;;;4995944;28;20306;-77
2022/03/08 07:52:01;;;;;;;13.17;9.50;;;;;;;;;;4997039;28;20290;-78
2022/03/08 07:54:28;;;;;;;11.93;9.20;;;;;;;;;;4996044;28;20295;-78
2022/03/08 07:56:56;;;;;;;12.17;9.30;;;;;;;;;;4993691;28;20296;-76
2022/03/08 07:59:26;;;;;;;10.13;9.03;;;;;;;;;;4995615;28;20204;-77
2022/03/08 08:01:53;;;;;;;11.97;9.57;;;;;;;;;;4994799;28;20290;-77
2022/03/08 08:04:20;;;;;;;10.40;9.00;;;;;;;;;;4992461;28;20208;-77
2022/03/08 08:06:49;;;;;;;12.87;8.77;;;;;;;;;;4994343;28;20273;-77
2022/03/08 08:09:16;;;;;;;9.13;8.20;;;;;;;;;;4994716;28;20199;-77
2022/03/08 08:11:56;;;;;;;;;;;;;;;;;;;;;
2022/03/08 08:14:25;;;;;;;11.37;8.73;;;;;;;;;;4995702;28;20680;-84
2022/03/08 08:16:56;;;;;;;11.87;8.53;;;;;;;;;;4994915;28;20230;-79
2022/03/08 08:19:23;;;;;;;9.60;8.70;;;;;;;;;;4995604;28;20277;-77
2022/03/08 08:21:52;;;;;;;10.17;8.77;;;;;;;;;;4995243;28;20246;-78
2022/03/08 08:24:19;;;;;;;9.93;8.87;;;;;;;;;;4994956;28;20200;-79
2022/03/08 08:26:54;;;;;;;9.83;8.50;;;;;;;;;;4997370;28;20227;-77
2022/03/08 08:29:21;;;;;;;11.73;9.27;;;;;;;;;;4998059;28;20210;-78
2022/03/08 08:31:48;;;;;;;11.33;8.97;;;;;;;;;;4995238;28;20666;-80
2022/03/08 08:34:16;;;;;;;10.77;8.97;;;;;;;;;;4993094;28;20222;-76
2022/03/08 08:36:47;;;;;;;12.03;9.13;;;;;;;;;;4994463;28;20327;-77
2022/03/08 08:39:15;;;;;;;9.70;8.50;;;;;;;;;;4994934;28;20289;-77
2022/03/08 08:41:46;;;;;;;9.40;8.50;;;;;;;;;;4993014;28;20215;-75
2022/03/08 08:44:13;;;;;;;12.43;8.73;;;;;;;;;;4991753;28;20246;-81
2022/03/08 08:46:40;;;;;;;11.00;8.77;;;;;;;;;;4986733;28;20239;-76
2022/03/08 08:49:08;;;;;;;15.37;9.27;;;;;;;;;;4990371;28;20794;-76
2022/03/08 08:51:35;;;;;;;10.27;9.00;;;;;;;;;;4990052;28;20285;-76
2022/03/08 08:54:02;;;;;;;9.70;8.80;;;;;;;;;;4993201;28;20226;-79
2022/03/08 08:56:35;;;;;;;12.13;10.00;;;;;;;;;;4991084;28;20495;-75
2022/03/08 08:59:02;;;;;;;14.23;9.80;;;;;;;;;;4987653;28;20265;-79
2022/03/08 09:01:29;;;;;;;11.20;9.30;;;;;;;;;;4990828;28;20207;-76
2022/03/08 09:03:57;;;;;;;10.67;8.70;;;;;;;;;;4993948;28;20690;-76
2022/03/08 09:06:24;;;;;;;12.97;9.50;;;;;;;;;;4993890;28;20306;-77
2022/03/08 09:08:54;;;;;;;10.80;8.87;;;;;;;;;;4988208;28;20410;-77
2022/03/08 09:11:25;;;;;;;11.80;8.60;;;;;;;;;;4994308;28;20227;-76
2022/03/08 09:13:56;;;;;;;10.33;8.13;;;;;;;;;;4992268;28;20258;-75
2022/03/08 09:16:24;;;;;;;7.90;7.10;;;;;;;;;;4994442;28;20219;-76
2022/03/08 09:18:51;;;;;;;10.53;7.10;;;;;;;;;;4993890;28;20203;-76
2022/03/08 09:21:18;;;;;;;8.20;7.07;;;;;;;;;;4994819;28;20203;-75
2022/03/08 09:23:45;;;;;;;8.60;7.30;;;;;;;;;;4992985;28;20235;-75
2022/03/08 09:26:13;;;;;;;7.53;6.70;;;;;;;;;;4990985;28;20314;-77
2022/03/08 09:28:40;;;;;;;7.77;6.80;;;;;;;;;;4993709;28;20286;-76
2022/03/08 09:31:09;;;;;;;8.77;7.10;;;;;;;;;;4993216;28;20235;-76
2022/03/08 09:33:36;;;;;;;7.93;6.37;;;;;;;;;;4987766;28;20670;-77
2022/03/08 09:36:03;;;;;;;7.57;6.37;;;;;;;;;;4991941;28;20305;-76
2022/03/08 09:38:32;;;;;;;8.00;6.70;;;;;;;;;;4992138;28;20213;-76
2022/03/08 09:41:00;;;;;;;7.07;6.20;;;;;;;;;;4989725;28;20219;-76
2022/03/08 09:43:33;;;;;;;8.97;6.90;;;;;;;;;;4991099;28;20230;-75
2022/03/08 09:46:04;;;;;;;7.30;6.60;;;;;;;;;;4989587;28;20255;-76
2022/03/08 09:48:33;;;;;;;8.33;6.53;;;;;;;;;;4990672;28;20199;-75
2022/03/08 09:51:01;;;;;;;8.10;6.73;;;;;;;;;;4989796;28;20223;-77
2022/03/08 09:53:30;;;;;;;8.27;6.43;;;;;;;;;;4994378;28;20277;-76
2022/03/08 09:55:58;;;;;;;7.60;6.83;;;;;;;;;;4994157;28;20309;-77
2022/03/08 09:58:26;;;;;;;9.53;6.80;;;;;;;;;;4991438;28;20300;-77
2022/03/08 10:00:55;;;;;;;6.87;6.17;;;;;;;;;;4994165;28;20205;-78
2022/03/08 10:03:34;;;;;;;7.33;6.07;;;;;;;;;;4992634;28;20207;-76
2022/03/08 10:06:01;;;;;;;8.77;6.73;;;;;;;;;;4993099;28;20223;-78
2022/03/08 10:08:29;;;;;;;7.20;6.50;;;;;;;;;;4992186;28;20254;-78
2022/03/08 10:10:58;;;;;;;6.40;5.77;;;;;;;;;;4993028;28;20219;-77
2022/03/08 10:13:27;;;;;;;7.50;6.37;;;;;;;;;;4985496;28;20285;-76
2022/03/08 10:16:08;;;;;;;6.97;6.23;;;;;;;;;;4988530;28;20290;-77
2022/03/08 10:18:42;;;;;;;8.63;6.07;;;;;;;;;;4989777;28;20211;-76
2022/03/08 10:21:35;;;;;;;6.87;6.17;;;;;;;;;;4997607;28;20199;-79
2022/03/08 10:24:05;;;;;;;6.73;5.60;;;;;;;;;;4992131;28;20250;-76
2022/03/08 10:26:33;;;;;;;6.57;5.80;;;;;;;;;;4992836;28;20230;-76
2022/03/08 10:29:06;;;;;;;8.13;7.27;;;;;;;;;;4990347;28;20215;-76
2022/03/08 10:31:33;;;;;;;7.70;6.70;;;;;;;;;;4989700;28;20243;-77
2022/03/08 10:34:18;;;;;;;7.63;5.53;;;;;;;;;;4991447;28;20206;-77
2022/03/08 10:37:03;;;;;;;6.43;5.17;;;;;;;;;;4986847;28;20246;-76
2022/03/08 10:39:45;;;;;;;6.50;5.57;;;;;;;;;;4992040;28;20210;-77
2022/03/08 10:42:13;;;;;;;5.97;5.40;;;;;;;;;;4992656;28;20210;-77
2022/03/08 10:44:41;;;;;;;5.90;5.30;;;;;;;;;;4993237;28;20269;-77
2022/03/08 10:47:10;;;;;;;5.90;5.33;;;;;;;;;;4991973;28;20277;-77
2022/03/08 10:49:41;;;;;;;6.53;5.20;;;;;;;;;;4990741;28;20207;-77
2022/03/08 10:52:14;;;;;;;7.00;5.30;;;;;;;;;;4992579;28;20223;-77
2022/03/08 10:54:42;;;;;;;9.50;6.27;;;;;;;;;;4993618;28;20298;-77
2022/03/08 10:57:12;;;;;;;5.97;4.90;;;;;;;;;;4993701;28;20238;-78
2022/03/08 10:59:53;;;;;;;6.23;5.00;;;;;;;;;;5008218;28;20207;-79
2022/03/08 11:02:21;;;;;;;5.50;5.00;;;;;;;;;;5003279;28;20665;-76
2022/03/08 11:05:09;;;;;;;6.47;5.17;;;;;;;;;;4994017;28;20262;-77
2022/03/08 11:07:39;;;;;;;6.20;4.80;;;;;;;;;;4991886;28;20227;-77
2022/03/08 11:10:08;;;;;;;6.33;5.57;;;;;;;;;;4993442;28;20231;-77
2022/03/08 11:12:35;;;;;;;5.87;5.10;;;;;;;;;;4993893;28;20211;-77
2022/03/08 11:15:03;;;;;;;6.30;5.53;;;;;;;;;;4991885;28;20203;-77
2022/03/08 11:17:30;;;;;;;6.63;5.23;;;;;;;;;;4995580;28;20321;-79
2022/03/08 11:19:58;;;;;;;6.97;5.47;;;;;;;;;;4991155;28;20274;-77
2022/03/08 11:22:25;;;;;;;5.50;4.93;;;;;;;;;;4997282;28;20343;-78
2022/03/08 11:24:54;;;;;;;6.60;4.60;;;;;;;;;;4997697;28;20207;-79
2022/03/08 11:27:22;;;;;;;5.80;4.67;;;;;;;;;;4995512;28;20269;-79
2022/03/08 11:29:50;;;;;;;6.10;4.97;;;;;;;;;;4996828;28;20306;-79
2022/03/08 11:32:19;;;;;;;6.30;5.10;;;;;;;;;;4995555;28;20253;-78
2022/03/08 11:34:48;;;;;;;6.87;4.90;;;;;;;;;;4997216;28;20732;-78
2022/03/08 11:37:19;;;;;;;5.57;5.07;;;;;;;;;;4997446;28;20231;-77
2022/03/08 11:40:05;;;;;;;5.53;4.90;;;;;;;;;;4996966;28;20238;-77
2022/03/08 11:42:44;;;;;;;5.97;5.27;;;;;;;;;;4997739;28;20310;-77
2022/03/08 11:45:13;;;;;;;5.50;4.90;;;;;;;;;;4996945;28;20269;-77
2022/03/08 11:47:42;;;;;;;5.20;4.70;;;;;;;;;;4993500;28;20222;-77
2022/03/08 11:50:19;;;;;;;6.00;5.40;;;;;;;;;;4996283;28;20205;-77
2022/03/08 11:52:46;;;;;;;5.63;4.97;;;;;;;;;;4995847;28;20218;-77
2022/03/08 11:55:14;;;;;;;5.87;4.90;;;;;;;;;;4990796;28;20215;-78
2022/03/08 11:57:56;;;;;;;5.70;4.73;;;;;;;;;;4991819;28;20226;-78
2022/03/08 12:00:25;;;;;;;5.17;4.67;;;;;;;;;;4990523;28;20203;-79
2022/03/08 12:02:53;;;;;;;5.77;5.10;;;;;;;;;;4992574;28;20207;-77
2022/03/08 12:05:39;;;;;;;5.33;4.83;;;;;;;;;;4994874;28;20670;-78
2022/03/08 12:08:25;;;;;;;5.20;4.70;;;;;;;;;;4993413;28;20290;-79
2022/03/08 12:10:57;;;;;;;7.53;5.20;;;;;;;;;;4992670;28;20219;-78
2022/03/08 12:13:26;;;;;;;6.93;4.93;;;;;;;;;;4996013;28;20281;-78
2022/03/08 12:16:12;;;;;;;5.77;4.80;;;;;;;;;;4995397;28;20223;-78
2022/03/08 12:18:41;;;;;;;5.67;4.93;;;;;;;;;;4992539;28;20203;-79
2022/03/08 12:21:27;;;;;;;5.70;5.20;;;;;;;;;;4994917;28;20336;-79
2022/03/08 12:23:55;;;;;;;5.80;5.20;;;;;;;;;;4990381;28;20203;-79
2022/03/08 12:26:26;;;;;;;9.10;7.60;;;;;;;;;;4992048;28;20282;-78
2022/03/08 12:29:08;;;;;;;6.77;5.30;;;;;;;;;;4992228;28;20211;-80
2022/03/08 12:31:55;;;;;;;6.27;5.27;;;;;;;;;;4993121;28;20313;-79
2022/03/08 12:34:36;;;;;;;5.97;5.37;;;;;;;;;;4989937;28;20245;-79
2022/03/08 12:37:04;;;;;;;5.87;5.27;;;;;;;;;;4995826;28;20314;-79
2022/03/08 12:39:47;;;;;;;5.73;4.60;;;;;;;;;;4993172;28;20239;-79
2022/03/08 12:42:21;;;;;;;5.30;4.80;;;;;;;;;;4996602;28;20261;-76
2022/03/08 12:44:54;;;;;;;5.87;5.30;;;;;;;;;;4987729;28;20286;-78
2022/03/08 12:47:21;;;;;;;5.10;4.60;;;;;;;;;;4991945;28;20243;-76
2022/03/08 12:49:49;;;;;;;5.43;4.87;;;;;;;;;;4994163;28;20211;-80
2022/03/08 12:52:17;;;;;;;6.30;5.60;;;;;;;;;;4994428;28;20254;-78
2022/03/08 12:54:45;;;;;;;7.00;5.57;;;;;;;;;;4995073;28;20330;-77
2022/03/08 12:57:13;;;;;;;8.77;6.30;;;;;;;;;;4990946;28;20219;-77
2022/03/08 12:59:44;;;;;;;7.23;6.00;;;;;;;;;;4993880;28;20199;-78
2022/03/08 13:02:13;;;;;;;6.43;5.83;;;;;;;;;;4994148;28;20203;-77
2022/03/08 13:04:40;;;;;;;7.40;5.40;;;;;;;;;;4990100;28;20231;-77
2022/03/08 13:07:09;;;;;;;6.83;5.57;;;;;;;;;;4996255;28;20246;-78
2022/03/08 13:09:56;;;;;;;6.00;5.40;;;;;;;;;;4991026;28;20203;-78
2022/03/08 13:12:24;;;;;;;6.97;4.87;;;;;;;;;;4991875;28;20243;-78
2022/03/08 13:15:10;;;;;;;6.67;5.50;;;;;;;;;;4989844;28;20294;-77
2022/03/08 13:17:39;;;;;;;6.87;6.20;;;;;;;;;;4994416;28;20227;-77
2022/03/08 13:20:23;;;;;;;6.43;5.30;;;;;;;;;;4995396;28;20215;-76
2022/03/08 13:22:50;;;;;;;5.83;5.20;;;;;;;;;;4995364;28;20200;-77
2022/03/08 13:25:18;;;;;;;5.83;5.20;;;;;;;;;;4995279;28;20203;-77
2022/03/08 13:27:56;;;;;;;11.70;6.80;;;;;;;;;;4994310;28;20219;-78
2022/03/08 13:30:25;;;;;;;6.40;5.70;;;;;;;;;;4995122;28;20211;-79
2022/03/08 13:33:14;;;;;;;6.43;5.40;;;;;;;;;;4996299;28;20247;-80
2022/03/08 13:35:49;;;;;;;5.80;5.30;;;;;;;;;;4995011;28;20285;-77
2022/03/08 13:38:20;;;;;;;5.83;5.23;;;;;;;;;;4994263;28;20239;-77
2022/03/08 13:40:47;;;;;;;5.50;5.00;;;;;;;;;;4994624;28;20230;-77
2022/03/08 13:43:15;;;;;;;5.70;5.20;;;;;;;;;;4994508;28;20222;-77
2022/03/08 13:45:45;;;;;;;5.80;5.20;;;;;;;;;;4994413;28;20262;-77
2022/03/08 13:48:17;;;;;;;6.10;5.50;;;;;;;;;;4994761;28;20207;-78
2022/03/08 13:50:47;;;;;;;6.50;5.10;;;;;;;;;;4991837;28;20203;-78
2022/03/08 13:53:17;;;;;;;5.80;5.20;;;;;;;;;;4993466;28;20223;-76
2022/03/08 13:55:44;;;;;;;5.90;5.40;;;;;;;;;;4988481;28;20227;-78
2022/03/08 13:58:16;;;;;;;5.20;4.70;;;;;;;;;;4992882;28;20201;-78
2022/03/08 14:00:49;;;;;;;5.90;4.80;;;;;;;;;;4995962;28;20306;-77
2022/03/08 14:03:21;;;;;;;7.60;4.47;;;;;;;;;;4987661;28;20199;-81
2022/03/08 14:05:52;;;;;;;5.57;4.57;;;;;;;;;;4992978;28;20237;-79
2022/03/08 14:08:52;;;;;;;8.83;5.30;;;;;;;;;;4995752;28;20246;-81
2022/03/08 14:11:20;;;;;;;5.37;4.87;;;;;;;;;;4977394;28;20211;-79
2022/03/08 14:13:49;;;;;;;5.90;5.10;;;;;;;;;;4990445;28;20203;-79
2022/03/08 14:16:16;;;;;;;5.37;4.87;;;;;;;;;;4990512;28;20235;-79
2022/03/08 14:18:51;;;;;;;5.10;4.60;;;;;;;;;;4991676;28;20290;-80
2022/03/08 14:21:25;;;;;;;4.97;4.43;;;;;;;;;;4987153;28;20226;-79
2022/03/08 14:23:52;;;;;;;5.23;4.57;;;;;;;;;;4993317;28;20202;-77
2022/03/08 14:26:21;;;;;;;5.87;5.27;;;;;;;;;;4993156;28;20281;-80
2022/03/08 14:28:52;;;;;;;6.40;5.67;;;;;;;;;;4992965;28;20214;-78
2022/03/08 14:31:24;;;;;;;5.20;4.70;;;;;;;;;;4992770;28;20242;-79
2022/03/08 14:33:54;;;;;;;6.10;5.17;;;;;;;;;;4992069;28;20203;-78
2022/03/08 14:36:34;;;;;;;9.53;6.00;;;;;;;;;;4987627;28;20291;-79
2022/03/08 14:39:02;;;;;;;7.77;5.13;;;;;;;;;;4990348;28;20204;-80
2022/03/08 14:41:29;;;;;;;5.67;4.80;;;;;;;;;;4988429;28;20241;-79